Pennville, Missouri
Current Conditions -  °F | °C
As of 3:11 AM on Thursday 27 Nov 2014 (Local Time) from KIRK Reporting Station
Haze Haze  
Wind Chill: 16°   Ceiling: 1000
Heat Index: 27°   Visibility: 5mi
Dew Point: 24°   Wind: 13mph
Humidity: 89%   Direction: 320°NW
Pressure: 30.39"   Gusts: 21mph
Location:  40.2455°N, 92.9523°W
Report Text: KIRK 270911Z AUTO 32011G18KT 5SM BR OVC010 M03/M04 A3039 RMK AO2 T10281044
Loading
Personal Weather Stations






























Interactive Weather Map New forecast layout! Learn more

10-Day Weather Forecast

Advertisements
Track Severe Weather on mobile